Wetterstation Vordersexau
Wetterdaten: Woche 29.04.13 - 05.05.13 (KW18)
Datum Zeit Temp. A. Feuchte A. Luftdruck Regen Wind Richtung Taupunkt Windchill Windben
29.04.2013 00:00 8,6 C 84 % 1014,1 hPa 0,0 l/m 0,0 km/h NO 6,1 C 8,6 C 0,0 km/h
29.04.2013 01:00 8,5 C 84 % 1014,2 hPa 0,0 l/m 0,0 km/h N-NO 6,0 C 8,5 C 0,0 km/h
29.04.2013 02:00 8,3 C 83 % 1014,4 hPa 0,0 l/m 0,0 km/h W 5,6 C 8,3 C 0,0 km/h
29.04.2013 03:00 8,1 C 83 % 1014,1 hPa 0,0 l/m 0,0 km/h W-NW 5,4 C 8,1 C 0,0 km/h
29.04.2013 04:00 8,1 C 82 % 1014,4 hPa 0,0 l/m 0,0 km/h N 5,2 C 8,1 C 0,0 km/h
29.04.2013 05:00 7,9 C 80 % 1014,4 hPa 0,0 l/m 0,0 km/h N 4,7 C 7,9 C 0,0 km/h
29.04.2013 06:00 7,8 C 81 % 1014,2 hPa 0,0 l/m 0,0 km/h N-NO 4,7 C 7,8 C 0,0 km/h
29.04.2013 07:00 8,3 C 80 % 1014,3 hPa 0,5 l/m 0,0 km/h NO 5,1 C 8,3 C 0,0 km/h
29.04.2013 08:00 8,9 C 81 % 1015,5 hPa 0,0 l/m 0,0 km/h O 5,8 C 8,9 C 0,0 km/h
29.04.2013 09:00 9,9 C 84 % 1015,8 hPa 0,0 l/m 0,0 km/h S 7,3 C 9,9 C 0,0 km/h
29.04.2013 10:00 12,1 C 80 % 1015,4 hPa 0,0 l/m 5,2 km/h N 8,8 C 12,1 C 2,9 km/h
29.04.2013 11:00 11,6 C 79 % 1016,6 hPa 0,0 l/m 0,6 km/h N 8,1 C 11,6 C 0,4 km/h
29.04.2013 12:00 11,6 C 79 % 1017,4 hPa 0,0 l/m 1,3 km/h N-NO 8,1 C 11,6 C 0,7 km/h
29.04.2013 13:00 11,4 C 81 % 1017,2 hPa 0,0 l/m 0,0 km/h NO 8,3 C 11,4 C 0,0 km/h
29.04.2013 14:00 12,5 C 80 % 1017,1 hPa 0,0 l/m 0,0 km/h N-NW 9,1 C 12,5 C 0,0 km/h
29.04.2013 15:00 12,5 C 80 % 1017,6 hPa 0,5 l/m 1,9 km/h N-NO 9,1 C 12,5 C 1,1 km/h
29.04.2013 16:00 13,8 C 75 % 1017,5 hPa 0,0 l/m 0,0 km/h W-NW 9,4 C 13,8 C 0,0 km/h
29.04.2013 17:00 12,3 C 78 % 1017,9 hPa 0,0 l/m 1,3 km/h SW 8,6 C 12,3 C 0,7 km/h
29.04.2013 18:00 10,9 C 83 % 1017,7 hPa 0,0 l/m 3,2 km/h S-SW 8,1 C 10,9 C 1,8 km/h
29.04.2013 19:00 10,4 C 84 % 1017,4 hPa 0,5 l/m 0,0 km/h O 7,8 C 10,4 C 0,0 km/h
29.04.2013 20:00 9,9 C 84 % 1017,5 hPa 0,5 l/m 0,0 km/h S 7,3 C 9,9 C 0,0 km/h
29.04.2013 21:00 9,7 C 83 % 1016,6 hPa 0,0 l/m 0,0 km/h S-SW 7,0 C 9,7 C 0,0 km/h
29.04.2013 22:00 9,3 C 82 % 1016,7 hPa 0,0 l/m 0,0 km/h N 6,4 C 9,3 C 0,0 km/h
29.04.2013 23:00 9,1 C 81 % 1016,9 hPa 0,0 l/m 0,0 km/h W-SW 6,0 C 9,1 C 0,0 km/h
30.04.2013 00:00 9,0 C 79 % 1016,6 hPa 0,0 l/m 0,0 km/h W-SW 5,6 C 9,0 C 0,0 km/h
30.04.2013 01:00 9,0 C 77 % 1016,6 hPa 0,0 l/m 0,0 km/h N 5,2 C 9,0 C 0,0 km/h
30.04.2013 02:00 8,9 C 76 % 1015,9 hPa 0,0 l/m 0,0 km/h N-NW 4,9 C 8,9 C 0,0 km/h
30.04.2013 03:00 8,8 C 75 % 1015,5 hPa 0,0 l/m 0,0 km/h W-SW 4,6 C 8,8 C 0,0 km/h
30.04.2013 04:00 8,8 C 74 % 1015,7 hPa 0,0 l/m 0,0 km/h SW 4,4 C 8,8 C 0,0 km/h
30.04.2013 05:00 8,9 C 73 % 1015,2 hPa 0,0 l/m 0,0 km/h SW 4,3 C 8,9 C 0,0 km/h
30.04.2013 06:00 8,8 C 73 % 1014,9 hPa 0,0 l/m 0,0 km/h SW 4,2 C 8,8 C 0,0 km/h
30.04.2013 07:00 9,0 C 72 % 1015,4 hPa 0,0 l/m 0,0 km/h N 4,2 C 9,0 C 0,0 km/h
30.04.2013 08:00 11,0 C 68 % 1015,2 hPa 0,0 l/m 1,9 km/h W-NW 5,3 C 11,0 C 1,1 km/h
30.04.2013 09:00 11,8 C 82 % 1015,2 hPa 0,0 l/m 0,0 km/h NW 8,8 C 11,8 C 0,0 km/h
30.04.2013 10:00 13,1 C 84 % 1015,0 hPa 0,0 l/m 0,0 km/h NW 10,5 C 13,1 C 0,0 km/h
30.04.2013 11:00 13,6 C 82 % 1015,1 hPa 0,0 l/m 0,0 km/h NW 10,6 C 13,6 C 0,0 km/h
30.04.2013 12:00 14,4 C 81 % 1015,2 hPa 0,0 l/m 0,0 km/h N-NO 11,2 C 14,4 C 0,0 km/h
30.04.2013 13:00 14,5 C 80 % 1015,1 hPa 0,0 l/m 0,0 km/h O-SO 11,1 C 14,5 C 0,0 km/h
30.04.2013 14:00 14,9 C 78 % 1015,4 hPa 0,0 l/m 0,0 km/h NO 11,1 C 14,9 C 0,0 km/h
30.04.2013 15:00 14,1 C 78 % 1015,6 hPa 0,0 l/m 0,0 km/h NO 10,3 C 14,1 C 0,0 km/h
30.04.2013 16:00 13,8 C 80 % 1015,6 hPa 0,0 l/m 0,0 km/h O-SO 10,4 C 13,8 C 0,0 km/h
30.04.2013 17:00 13,5 C 82 % 1015,7 hPa 0,0 l/m 0,0 km/h N-NW 10,5 C 13,5 C 0,0 km/h
30.04.2013 18:00 12,9 C 83 % 1016,2 hPa 0,0 l/m 7,1 km/h O-NO 10,1 C 12,5 C 4,0 km/h
30.04.2013 19:00 12,3 C 84 % 1016,3 hPa 0,0 l/m 0,0 km/h N 9,7 C 12,3 C 0,0 km/h
30.04.2013 20:00 11,6 C 83 % 1016,5 hPa 0,0 l/m 2,6 km/h N 8,8 C 11,6 C 1,4 km/h
30.04.2013 21:00 10,2 C 82 % 1016,9 hPa 0,0 l/m 7,1 km/h N 7,3 C 9,7 C 4,0 km/h
30.04.2013 22:00 9,1 C 80 % 1017,3 hPa 0,0 l/m 1,3 km/h W-NW 5,8 C 9,1 C 0,7 km/h
30.04.2013 23:00 9,3 C 77 % 1017,1 hPa 0,0 l/m 0,0 km/h W-NW 5,5 C 9,3 C 0,0 km/h
01.05.2013 00:00 9,4 C 73 % 1017,2 hPa 0,0 l/m 0,0 km/h N-NW 4,8 C 9,4 C 0,0 km/h
01.05.2013 01:00 9,4 C 71 % 1016,9 hPa 0,0 l/m 1,3 km/h N 4,4 C 9,4 C 0,7 km/h
01.05.2013 02:00 9,3 C 69 % 1017,0 hPa 0,0 l/m 0,0 km/h O-NO 3,9 C 9,3 C 0,0 km/h
01.05.2013 03:00 9,1 C 69 % 1016,9 hPa 0,0 l/m 0,0 km/h N 3,7 C 9,1 C 0,0 km/h
01.05.2013 04:00 9,2 C 68 % 1017,2 hPa 0,0 l/m 0,0 km/h O-SO 3,6 C 9,2 C 0,0 km/h
01.05.2013 05:00 9,1 C 67 % 1016,9 hPa 0,0 l/m 0,0 km/h N-NO 3,3 C 9,1 C 0,0 km/h
01.05.2013 06:00 8,9 C 67 % 1017,6 hPa 0,0 l/m 1,3 km/h NO 3,1 C 8,9 C 0,7 km/h
01.05.2013 07:00 9,4 C 65 % 1017,3 hPa 0,0 l/m 0,0 km/h NO 3,2 C 9,4 C 0,0 km/h
01.05.2013 08:00 11,4 C 65 % 1017,0 hPa 0,0 l/m 0,0 km/h NW 5,1 C 11,4 C 0,0 km/h
01.05.2013 09:00 11,2 C 84 % 1016,7 hPa 0,0 l/m 9,1 km/h N 8,6 C 9,4 C 5,0 km/h
01.05.2013 10:00 10,9 C 84 % 1016,6 hPa 0,0 l/m 1,3 km/h NO 8,3 C 10,9 C 0,7 km/h
01.05.2013 11:00 12,3 C 84 % 1016,5 hPa 0,0 l/m 1,3 km/h SW 9,7 C 12,3 C 0,7 km/h
01.05.2013 12:00 12,9 C 83 % 1016,1 hPa 0,0 l/m 7,1 km/h SW 10,1 C 12,5 C 4,0 km/h
01.05.2013 13:00 19,3 C 73 % 1015,0 hPa 0,0 l/m 0,0 km/h W 14,3 C 19,3 C 0,0 km/h
01.05.2013 14:00 20,8 C 66 % 1014,1 hPa 0,0 l/m 1,9 km/h W-SW 14,2 C 20,8 C 1,1 km/h
01.05.2013 15:00 23,0 C 58 % 1013,5 hPa 0,0 l/m 0,0 km/h N 14,3 C 23,0 C 0,0 km/h
01.05.2013 16:00 21,5 C 62 % 1013,3 hPa 0,0 l/m 5,8 km/h N-NO 13,9 C 21,5 C 3,2 km/h
01.05.2013 17:00 15,9 C 76 % 1015,2 hPa 0,0 l/m 22,0 km/h N-NO 11,7 C 10,4 C 12,2 km/h
01.05.2013 18:00 15,9 C 77 % 1015,0 hPa 0,0 l/m 1,9 km/h N 11,9 C 15,9 C 1,1 km/h
01.05.2013 19:00 14,9 C 80 % 1015,6 hPa 0,0 l/m 0,0 km/h N-NW 11,5 C 14,9 C 0,0 km/h
01.05.2013 20:00 14,3 C 83 % 1016,0 hPa 0,0 l/m 0,0 km/h N 11,5 C 14,3 C 0,0 km/h
01.05.2013 21:00 13,3 C 83 % 1016,7 hPa 0,5 l/m 0,0 km/h SW 10,5 C 13,3 C 0,0 km/h
01.05.2013 22:00 13,1 C 82 % 1016,8 hPa 0,0 l/m 0,0 km/h NO 10,1 C 13,1 C 0,0 km/h
01.05.2013 23:00 12,9 C 80 % 1016,7 hPa 0,5 l/m 0,0 km/h O-SO 9,5 C 12,9 C 0,0 km/h
02.05.2013 00:00 12,8 C 76 % 1015,9 hPa 2,6 l/m 10,4 km/h O-SO 8,7 C 10,5 C 5,8 km/h
02.05.2013 01:00 12,5 C 73 % 1016,7 hPa 0,5 l/m 0,0 km/h W-SW 7,8 C 12,5 C 0,0 km/h
02.05.2013 02:00 12,3 C 73 % 1016,5 hPa 0,0 l/m 0,0 km/h SO 7,6 C 12,3 C 0,0 km/h
02.05.2013 03:00 12,4 C 71 % 1015,8 hPa 0,0 l/m 0,0 km/h SO 7,3 C 12,4 C 0,0 km/h
02.05.2013 04:00 11,8 C 72 % 1015,6 hPa 0,0 l/m 0,0 km/h S-SO 6,9 C 11,8 C 0,0 km/h
02.05.2013 05:00 11,5 C 71 % 1015,4 hPa 0,0 l/m 0,0 km/h S-SO 6,4 C 11,5 C 0,0 km/h
02.05.2013 06:00 10,7 C 73 % 1015,2 hPa 0,0 l/m 0,0 km/h W-NW 6,1 C 10,7 C 0,0 km/h
02.05.2013 07:00 11,8 C 67 % 1015,6 hPa 0,5 l/m 0,0 km/h W-NW 5,9 C 11,8 C 0,0 km/h
02.05.2013 08:00 13,4 C 63 % 1015,5 hPa 0,0 l/m 0,0 km/h O 6,5 C 13,4 C 0,0 km/h
02.05.2013 09:00 15,2 C 72 % 1015,6 hPa 0,0 l/m 0,0 km/h NW 10,2 C 15,2 C 0,0 km/h
02.05.2013 10:00 15,9 C 82 % 1015,8 hPa 0,0 l/m 1,9 km/h NO 12,8 C 15,9 C 1,1 km/h
02.05.2013 11:00 16,4 C 81 % 1015,9 hPa 0,0 l/m 0,0 km/h NO 13,1 C 16,4 C 0,0 km/h
02.05.2013 12:00 17,1 C 80 % 1015,8 hPa 0,0 l/m 5,8 km/h N-NO 13,6 C 17,1 C 3,2 km/h
02.05.2013 13:00 17,6 C 78 % 1015,1 hPa 0,0 l/m 0,0 km/h N 13,7 C 17,6 C 0,0 km/h
02.05.2013 14:00 18,5 C 77 % 1014,8 hPa 0,0 l/m 1,9 km/h N-NO 14,4 C 18,5 C 1,1 km/h
02.05.2013 15:00 19,5 C 72 % 1014,2 hPa 0,0 l/m 7,8 km/h NW 14,3 C 18,9 C 4,3 km/h
02.05.2013 16:00 21,2 C 71 % 1013,4 hPa 0,0 l/m 12,3 km/h W-NW 15,7 C 19,3 C 6,8 km/h
02.05.2013 17:00 18,5 C 77 % 1012,7 hPa 0,0 l/m 6,5 km/h N-NW 14,4 C 18,5 C 3,6 km/h
02.05.2013 18:00 14,8 C 82 % 1013,9 hPa 0,5 l/m 22,0 km/h S 11,8 C 9,0 C 12,2 km/h
02.05.2013 19:00 15,0 C 83 % 1013,6 hPa 1,6 l/m 0,0 km/h NO 12,1 C 15,0 C 0,0 km/h
02.05.2013 20:00 13,8 C 83 % 1014,2 hPa 0,0 l/m 3,9 km/h S-SO 11,0 C 13,8 C 2,2 km/h
02.05.2013 21:00 12,2 C 83 % 1014,0 hPa 0,0 l/m 0,0 km/h NO 9,4 C 12,2 C 0,0 km/h
02.05.2013 22:00 11,9 C 81 % 1014,3 hPa 0,0 l/m 0,0 km/h O-SO 8,7 C 11,9 C 0,0 km/h
02.05.2013 23:00 11,6 C 79 % 1014,0 hPa 0,0 l/m 5,8 km/h SO 8,1 C 11,6 C 3,2 km/h
03.05.2013 00:00 11,3 C 78 % 1013,8 hPa 0,0 l/m 0,0 km/h SO 7,6 C 11,3 C 0,0 km/h
03.05.2013 01:00 10,9 C 77 % 1013,5 hPa 0,0 l/m 0,0 km/h N 7,0 C 10,9 C 0,0 km/h
03.05.2013 02:00 10,8 C 76 % 1013,2 hPa 0,0 l/m 0,0 km/h SO 6,7 C 10,8 C 0,0 km/h
03.05.2013 03:00 9,9 C 76 % 1012,5 hPa 0,0 l/m 0,0 km/h SO 5,9 C 9,9 C 0,0 km/h
03.05.2013 04:00 9,0 C 77 % 1012,2 hPa 0,0 l/m 0,0 km/h N-NO 5,2 C 9,0 C 0,0 km/h
03.05.2013 05:00 8,4 C 76 % 1011,8 hPa 0,0 l/m 0,0 km/h N-NW 4,4 C 8,4 C 0,0 km/h
03.05.2013 06:00 10,1 C 70 % 1011,5 hPa 0,0 l/m 0,0 km/h S-SW 4,9 C 10,1 C 0,0 km/h
03.05.2013 07:00 10,5 C 69 % 1011,8 hPa 0,0 l/m 1,3 km/h S-SW 5,1 C 10,5 C 0,7 km/h
03.05.2013 08:00 11,8 C 63 % 1011,7 hPa 0,0 l/m 0,0 km/h O-SO 5,0 C 11,8 C 0,0 km/h
03.05.2013 09:00 13,2 C 80 % 1011,7 hPa 0,0 l/m 0,0 km/h NW 9,8 C 13,2 C 0,0 km/h
03.05.2013 10:00 18,5 C 74 % 1012,1 hPa 0,0 l/m 11,7 km/h NW 13,8 C 16,4 C 6,5 km/h
03.05.2013 11:00 14,1 C 83 % 1012,5 hPa 0,0 l/m 9,1 km/h NW 11,3 C 12,6 C 5,0 km/h
03.05.2013 12:00 13,8 C 84 % 1012,7 hPa 0,0 l/m 13,6 km/h W-SW 11,1 C 10,2 C 7,6 km/h
03.05.2013 13:00 13,9 C 84 % 1012,6 hPa 0,0 l/m 0,0 km/h W-NW 11,2 C 13,9 C 0,0 km/h
03.05.2013 14:00 13,6 C 83 % 1012,9 hPa 0,0 l/m 0,0 km/h S 10,8 C 13,6 C 0,0 km/h
03.05.2013 15:00 14,4 C 83 % 1012,6 hPa 0,0 l/m 0,0 km/h NW 11,5 C 14,4 C 0,0 km/h
03.05.2013 16:00 13,4 C 84 % 1012,5 hPa 1,0 l/m 1,9 km/h N 10,8 C 13,4 C 1,1 km/h
03.05.2013 17:00 13,0 C 81 % 1012,9 hPa 0,0 l/m 0,0 km/h NO 9,8 C 13,0 C 0,0 km/h
03.05.2013 18:00 13,3 C 82 % 1013,2 hPa 0,0 l/m 0,0 km/h S-SW 10,3 C 13,3 C 0,0 km/h
03.05.2013 19:00 13,9 C 83 % 1013,1 hPa 0,5 l/m 1,3 km/h SW 11,1 C 13,9 C 0,7 km/h
03.05.2013 20:00 11,8 C 84 % 1013,3 hPa 0,0 l/m 0,0 km/h SO 9,2 C 11,8 C 0,0 km/h
03.05.2013 21:00 10,8 C 82 % 1014,0 hPa 0,0 l/m 0,0 km/h N-NW 7,9 C 10,8 C 0,0 km/h
03.05.2013 22:00 10,9 C 79 % 1014,5 hPa 0,0 l/m 0,0 km/h S-SW 7,4 C 10,9 C 0,0 km/h
03.05.2013 23:00 10,8 C 79 % 1014,7 hPa 0,0 l/m 0,0 km/h SO 7,3 C 10,8 C 0,0 km/h
04.05.2013 00:00 9,9 C 81 % 1014,7 hPa 0,0 l/m 0,0 km/h SO 6,8 C 9,9 C 0,0 km/h
04.05.2013 01:00 8,4 C 81 % 1014,6 hPa 0,0 l/m 0,0 km/h S-SW 5,3 C 8,4 C 0,0 km/h
04.05.2013 02:00 8,1 C 78 % 1014,3 hPa 0,0 l/m 0,0 km/h O-SO 4,5 C 8,1 C 0,0 km/h
04.05.2013 03:00 7,6 C 77 % 1014,1 hPa 0,0 l/m 0,0 km/h S-SO 3,8 C 7,6 C 0,0 km/h
04.05.2013 04:00 8,4 C 73 % 1014,4 hPa 0,0 l/m 0,0 km/h SO 3,8 C 8,4 C 0,0 km/h
04.05.2013 05:00 8,9 C 70 % 1014,1 hPa 0,0 l/m 0,0 km/h S-SW 3,7 C 8,9 C 0,0 km/h
04.05.2013 06:00 9,1 C 67 % 1014,1 hPa 0,0 l/m 0,0 km/h S-SO 3,3 C 9,1 C 0,0 km/h
04.05.2013 07:00 9,6 C 66 % 1014,8 hPa 0,0 l/m 0,0 km/h S 3,6 C 9,6 C 0,0 km/h
04.05.2013 08:00 10,7 C 64 % 1015,5 hPa 0,0 l/m 0,0 km/h S 4,2 C 10,7 C 0,0 km/h
04.05.2013 09:00 15,5 C 54 % 1015,9 hPa 0,0 l/m 0,0 km/h N-NW 6,2 C 15,5 C 0,0 km/h
04.05.2013 10:00 13,9 C 84 % 1016,5 hPa 0,0 l/m 22,7 km/h N-NO 11,2 C 7,6 C 12,6 km/h
04.05.2013 11:00 14,3 C 81 % 1017,2 hPa 0,0 l/m 0,0 km/h N-NO 11,1 C 14,3 C 0,0 km/h
04.05.2013 12:00 13,2 C 84 % 1017,4 hPa 0,5 l/m 0,0 km/h N-NO 10,6 C 13,2 C 0,0 km/h
04.05.2013 13:00 17,9 C 73 % 1017,6 hPa 0,0 l/m 4,5 km/h N-NW 13,0 C 17,9 C 2,5 km/h
04.05.2013 14:00 16,7 C 78 % 1017,6 hPa 0,0 l/m 8,4 km/h W 12,8 C 15,7 C 4,7 km/h
04.05.2013 15:00 19,8 C 67 % 1017,6 hPa 0,0 l/m 3,2 km/h W 13,5 C 19,8 C 1,8 km/h
04.05.2013 16:00 17,6 C 71 % 1017,7 hPa 0,0 l/m 0,0 km/h W 12,3 C 17,6 C 0,0 km/h
04.05.2013 17:00 17,8 C 69 % 1017,9 hPa 0,0 l/m 1,3 km/h SW 12,0 C 17,8 C 0,7 km/h
04.05.2013 18:00 17,2 C 68 % 1018,1 hPa 0,0 l/m 4,5 km/h S-SW 11,2 C 17,2 C 2,5 km/h
04.05.2013 19:00 18,8 C 63 % 1018,1 hPa 0,0 l/m 0,0 km/h SO 11,6 C 18,8 C 0,0 km/h
04.05.2013 20:00 13,8 C 78 % 1018,5 hPa 0,0 l/m 0,0 km/h S-SW 10,0 C 13,8 C 0,0 km/h
04.05.2013 21:00 11,6 C 83 % 1019,4 hPa 0,5 l/m 0,0 km/h S-SO 8,8 C 11,6 C 0,0 km/h
04.05.2013 22:00 10,8 C 83 % 1019,8 hPa 0,0 l/m 0,0 km/h S 8,0 C 10,8 C 0,0 km/h
04.05.2013 23:00 9,6 C 83 % 1020,2 hPa 0,0 l/m 0,0 km/h S-SW 6,9 C 9,6 C 0,0 km/h
05.05.2013 00:00 8,9 C 82 % 1020,6 hPa 0,0 l/m 0,0 km/h S-SO 6,0 C 8,9 C 0,0 km/h
05.05.2013 01:00 8,5 C 80 % 1020,5 hPa 0,0 l/m 0,0 km/h S-SW 5,3 C 8,5 C 0,0 km/h
05.05.2013 02:00 7,9 C 80 % 1020,2 hPa 0,0 l/m 0,0 km/h S-SW 4,7 C 7,9 C 0,0 km/h
05.05.2013 03:00 7,4 C 78 % 1020,3 hPa 0,0 l/m 0,0 km/h S-SW 3,8 C 7,4 C 0,0 km/h
05.05.2013 04:00 6,9 C 77 % 1020,2 hPa 0,0 l/m 0,0 km/h S 3,2 C 6,9 C 0,0 km/h
05.05.2013 05:00 6,8 C 77 % 1020,0 hPa 0,0 l/m 0,0 km/h SO 3,1 C 6,8 C 0,0 km/h
05.05.2013 06:00 6,6 C 75 % 1020,0 hPa 0,0 l/m 0,0 km/h S 2,5 C 6,6 C 0,0 km/h
05.05.2013 07:00 7,5 C 71 % 1020,3 hPa 0,0 l/m 0,0 km/h S 2,6 C 7,5 C 0,0 km/h
05.05.2013 08:00 13,5 C 69 % 1020,2 hPa 0,0 l/m 0,0 km/h N-NW 7,9 C 13,5 C 0,0 km/h
05.05.2013 09:00 17,6 C 73 % 1020,4 hPa 0,0 l/m 1,9 km/h N-NO 12,7 C 17,6 C 1,1 km/h
05.05.2013 10:00 19,4 C 67 % 1020,3 hPa 0,0 l/m 4,5 km/h N-NW 13,1 C 19,4 C 2,5 km/h
05.05.2013 11:00 22,0 C 61 % 1019,8 hPa 0,0 l/m 3,2 km/h NW 14,1 C 22,0 C 1,8 km/h
05.05.2013 12:00 21,9 C 61 % 1019,5 hPa 0,0 l/m 13,0 km/h O 14,0 C 20,0 C 7,2 km/h
05.05.2013 13:00 24,8 C 52 % 1018,6 hPa 0,0 l/m 0,0 km/h O-SO 14,3 C 24,8 C 0,0 km/h
05.05.2013 14:00 23,2 C 55 % 1017,9 hPa 0,0 l/m 18,8 km/h S-SO 13,6 C 20,5 C 10,4 km/h
05.05.2013 15:00 22,8 C 46 % 1017,5 hPa 0,0 l/m 0,0 km/h O-SO 10,6 C 22,8 C 0,0 km/h
05.05.2013 16:00 25,4 C 42 % 1017,1 hPa 0,0 l/m 0,0 km/h O 11,5 C 25,4 C 0,0 km/h
05.05.2013 17:00 25,9 C 43 % 1016,8 hPa 0,0 l/m 0,0 km/h SO 12,3 C 25,9 C 0,0 km/h
05.05.2013 18:00 26,1 C 37 % 1016,3 hPa 0,0 l/m 0,0 km/h O 10,3 C 26,1 C 0,0 km/h
05.05.2013 19:00 25,6 C 38 % 1016,3 hPa 0,0 l/m 0,0 km/h SO 10,2 C 25,6 C 0,0 km/h
05.05.2013 20:00 18,3 C 52 % 1016,6 hPa 0,0 l/m 0,0 km/h S 8,3 C 18,3 C 0,0 km/h
05.05.2013 21:00 13,2 C 65 % 1017,0 hPa 0,0 l/m 0,0 km/h S 6,8 C 13,2 C 0,0 km/h
05.05.2013 22:00 10,9 C 76 % 1017,5 hPa 0,0 l/m 0,0 km/h SO 6,8 C 10,9 C 0,0 km/h
05.05.2013 23:00 11,8 C 78 % 1017,4 hPa 0,0 l/m 0,0 km/h S-SW 8,1 C 11,8 C 0,0 km/h
Min-Datum _ 05.05.13 05.05.13 03.05.13 - 29.04.13 - 05.05.13 05.05.13 29.04.13
_ Min-Zeit 06:19 18:19 06:19 - 00:19 - 06:19 06:19 00:19
Minimum _ 6,6 C 37 % 1011,5 hPa - 0,0 km/h - 2,5 C 6,6 C 0,0 km/h
Max-Datum _ 05.05.13 29.04.13 05.05.13 02.05.13 04.05.13 - 02.05.13 05.05.13 04.05.13
_ Max-Zeit 18:19 00:19 00:19 00:19 10:19 - 16:19 18:19 10:19
Maximum _ 26,1 C 84 % 1020,6 hPa 2,6 l/m 22,7 km/h
N-NO
- 15,7 C 26,1 C 12,6 km/h
N-NO
Durchschnitt _ 12,9 C 75 % 1015,9 hPa #11,4 l/m 1,7 km/h N 8,4 C 12,6 C 1,0 km/h
www.sexauwetter.de